SAAR/ROS METAR and TAF weather

Enter ICAO airport designator
Station Type Date Time Source
SAAR METAR 2021/09/28 04:15 UTC NOAA

SAAR 280415Z 16011KT 130V190 7000 VCTS OVC009 FEW045CB 14/12 Q1019


Station Type Date Time Source
SAAR Decoded METAR 2021/09/28 04:15 UTC NOAA

Rosario Aerodrome, Argentina (SAAR) 32-55S 060-47W 25M
Sep 28, 2021 - 12:15 AM EDT / 2021.09.28 0415 UTC
Wind: from the SSE (160 degrees) at 13 MPH (11 KT) (direction variable):0
Visibility: 4 mile(s):0
Sky conditions: overcast
Weather: thunder in the vicinity; Cumulonimbus clouds observed
Temperature: 57 F (14 C)
Dew Point: 53 F (12 C)
Relative Humidity: 87%
Pressure (altimeter): 30.09 in. Hg (1019 hPa)
ob: SAAR 280415Z 16011KT 130V190 7000 VCTS OVC009 FEW045CB 14/12 Q1019
cycle: 4

Station Type Date Time Source
SAAR TAF 2021/09/28 00:00 UTC NOAA

TAF SAAR 272300Z 2800/2824 14015KT 9999 OVC030 TX20/2800Z TN13/2810Z
BECMG 2803/2805 7000 OVC008
TEMPO 2804/2809 5000 DZBR OVC006
BECMG 2813/2815 14010KT 9999 OVC015
TEMPO 2815/2819 8000 -RA

Example: see airport list